createdAt,value
2018-11-21T00:01:44.449Z,96322.68
2018-11-21T00:03:30.948Z,96320.02
2018-11-21T00:05:17.315Z,96334.07
2018-11-21T00:07:03.706Z,96322.02
2018-11-21T00:08:49.846Z,96322.41
2018-11-21T00:10:36.293Z,96319.34
2018-11-21T00:12:11.274Z,96313.41
2018-11-21T00:14:05.351Z,96317.05
2018-11-21T00:19:00.884Z,96328.67
2018-11-21T00:22:40.507Z,96329.86
2018-11-21T00:24:15.088Z,96323.67
2018-11-21T00:26:10.055Z,96340.80
2018-11-21T00:27:44.768Z,96338.12
2018-11-21T00:29:19.389Z,96341.63
2018-11-21T00:30:54.562Z,96337.59
2018-11-21T00:32:52.032Z,96334.76
2018-11-21T00:36:25.637Z,96331.34
2018-11-21T00:38:00.696Z,96334.08
2018-11-21T00:41:35.784Z,96337.78
2018-11-21T00:43:10.565Z,96342.23
2018-11-21T00:46:50.844Z,96352.67
2018-11-21T00:48:37.840Z,96350.37
2018-11-21T00:50:31.790Z,96348.50
2018-11-21T00:52:06.694Z,96352.55
2018-11-21T00:53:41.505Z,96353.00
2018-11-21T00:55:16.935Z,96363.77
2018-11-21T00:56:52.117Z,96361.47
2018-11-21T00:58:26.988Z,96360.70
2018-11-21T01:00:03.888Z,96367.23
2018-11-21T01:01:56.045Z,96362.68
2018-11-21T01:03:31.992Z,96370.89
2018-11-21T01:05:07.501Z,96369.16
2018-11-21T01:07:01.408Z,96369.94
2018-11-21T01:10:15.728Z,96372.67
2018-11-21T01:14:20.681Z,96389.98
2018-11-21T01:16:06.894Z,96383.88
2018-11-21T01:17:42.307Z,96383.45
2018-11-21T01:19:17.351Z,96391.95
2018-11-21T01:20:52.274Z,96398.30
2018-11-21T01:22:27.084Z,96396.57
2018-11-21T01:24:20.434Z,96394.65
2018-11-21T01:25:55.171Z,96400.79
2018-11-21T01:27:49.245Z,96399.97
2018-11-21T01:29:35.365Z,96395.36
2018-11-21T01:31:24.181Z,96396.07
2018-11-21T01:33:09.736Z,96404.34
2018-11-21T01:35:02.773Z,96408.17
2018-11-21T01:48:02.336Z,96415.88
2018-11-21T01:49:37.943Z,96408.42
2018-11-21T01:51:51.774Z,96411.51
2018-11-21T01:53:38.228Z,96411.45
2018-11-21T01:55:24.548Z,96413.17
2018-11-21T01:57:11.637Z,96404.48
2018-11-21T01:58:57.819Z,96415.48
2018-11-21T02:00:43.859Z,96420.06
2018-11-21T02:02:18.654Z,96426.06
2018-11-21T02:04:12.296Z,96429.52
2018-11-21T02:05:59.451Z,96422.80
2018-11-21T02:09:52.139Z,96422.75
2018-11-21T02:11:38.420Z,96423.12
2018-11-21T02:13:13.196Z,96423.70
2018-11-21T02:14:47.769Z,96428.70
2018-11-21T02:18:41.579Z,96422.17
2018-11-21T02:20:28.213Z,96413.89
2018-11-21T02:22:02.931Z,96413.52
2018-11-21T02:23:37.629Z,96419.52
2018-11-21T02:25:30.842Z,96423.17
2018-11-21T02:29:16.226Z,96432.23
2018-11-21T02:30:51.281Z,96436.45
2018-11-21T02:32:28.431Z,96439.34
2018-11-21T02:34:03.023Z,96433.42
2018-11-21T02:35:37.543Z,96433.00
2018-11-21T02:37:34.130Z,96434.34
2018-11-21T02:39:10.805Z,96424.73
2018-11-21T02:40:45.339Z,96431.69
2018-11-21T02:42:20.869Z,96433.23
2018-11-21T02:43:58.253Z,96430.73
2018-11-21T02:47:50.844Z,96421.66
2018-11-21T02:49:25.429Z,96436.84
2018-11-21T02:50:59.996Z,96429.34
2018-11-21T02:52:54.071Z,96435.92
2018-11-21T02:54:48.021Z,96444.00
2018-11-21T02:57:02.833Z,96462.88
2018-11-21T02:58:37.602Z,96461.15
2018-11-21T03:00:45.405Z,96470.19
2018-11-21T03:02:18.180Z,96474.64
2018-11-21T03:03:52.842Z,96468.67
2018-11-21T03:05:27.532Z,96472.10
2018-11-21T03:07:21.173Z,96464.41
2018-11-21T03:08:55.957Z,96468.06
2018-11-21T03:10:50.303Z,96470.77
2018-11-21T03:12:37.447Z,96470.59
2018-11-21T03:15:51.546Z,96472.33
2018-11-21T03:17:26.048Z,96471.37
2018-11-21T03:19:00.553Z,96479.08
2018-11-21T03:20:54.433Z,96480.81
2018-11-21T03:24:29.393Z,96469.28
2018-11-21T03:26:03.989Z,96467.95
2018-11-21T03:27:57.999Z,96471.98
2018-11-21T03:29:33.366Z,96475.83
2018-11-21T03:31:07.913Z,96482.57
2018-11-21T03:33:57.578Z,96482.57
2018-11-21T03:37:22.800Z,96487.39
2018-11-21T03:38:57.896Z,96503.49
2018-11-21T03:40:51.590Z,96504.47
2018-11-21T03:42:45.590Z,96509.84
2018-11-21T03:44:20.448Z,96510.02
2018-11-21T03:45:55.070Z,96504.84
2018-11-21T03:48:07.812Z,96507.14
2018-11-21T03:51:41.419Z,96501.56
2018-11-21T03:55:40.213Z,96520.22
2018-11-21T04:02:40.165Z,96522.51
2018-11-21T04:04:14.746Z,96534.22
2018-11-21T04:08:01.916Z,96516.17
2018-11-21T04:09:36.515Z,96501.20
2018-11-21T04:11:30.323Z,96511.95
2018-11-21T04:13:16.410Z,96514.25
2018-11-21T04:15:05.216Z,96515.02
2018-11-21T04:16:39.737Z,96514.45
2018-11-21T04:18:33.034Z,96510.40
2018-11-21T04:20:45.809Z,96510.20
2018-11-21T04:24:58.859Z,96508.50
2018-11-21T04:33:52.127Z,96525.79
2018-11-21T04:37:38.492Z,96523.09
2018-11-21T04:39:14.585Z,96518.67
2018-11-21T04:42:47.611Z,96524.44
2018-11-21T04:46:02.499Z,96522.51
2018-11-21T04:47:56.211Z,96523.08
2018-11-21T04:49:30.901Z,96519.43
2018-11-21T04:53:54.304Z,96521.75
2018-11-21T04:55:29.421Z,96531.94
2018-11-21T04:57:03.822Z,96533.84
2018-11-21T04:58:38.883Z,96537.11
2018-11-21T05:00:32.252Z,96531.35
2018-11-21T05:04:46.673Z,96536.92
2018-11-21T05:06:34.570Z,96543.63
2018-11-21T05:08:22.594Z,96549.22
2018-11-21T05:10:36.473Z,96542.86
2018-11-21T05:14:30.384Z,96549.02
2018-11-21T05:16:05.869Z,96549.58
2018-11-21T05:17:59.679Z,96563.98
2018-11-21T05:19:34.314Z,96561.49
2018-11-21T05:21:08.997Z,96566.66
2018-11-21T05:22:45.248Z,96573.57
2018-11-21T05:24:19.886Z,96570.90
2018-11-21T05:25:55.674Z,96574.34
2018-11-21T05:27:30.204Z,96574.14
2018-11-21T05:29:04.664Z,96566.48
2018-11-21T05:30:39.176Z,96573.00
2018-11-21T05:32:14.088Z,96573.77
2018-11-21T05:34:08.082Z,96573.95
2018-11-21T05:36:00.189Z,96582.78
2018-11-21T05:37:34.706Z,96584.72
2018-11-21T05:39:13.196Z,96578.96
2018-11-21T05:40:47.626Z,96584.13
2018-11-21T05:42:24.819Z,96581.45
2018-11-21T05:43:59.252Z,96583.56
2018-11-21T05:45:33.822Z,96586.25
2018-11-21T05:47:08.510Z,96582.02
2018-11-21T05:48:43.040Z,96580.88
2018-11-21T05:50:17.942Z,96568.59
2018-11-21T05:51:52.356Z,96570.32
2018-11-21T05:53:26.970Z,96572.23
2018-11-21T05:55:04.419Z,96572.06
2018-11-21T05:56:39.541Z,96559.77
2018-11-21T05:58:14.024Z,96564.96
2018-11-21T05:59:48.409Z,96560.36
2018-11-21T06:01:25.663Z,96562.28
2018-11-21T06:03:00.615Z,96564.56
2018-11-21T06:04:37.414Z,96567.25
2018-11-21T06:06:12.113Z,96567.45
2018-11-21T06:07:46.766Z,96578.02
2018-11-21T06:09:21.595Z,96580.31
2018-11-21T06:10:56.399Z,96576.30
2018-11-21T06:12:31.258Z,96581.67
2018-11-21T06:14:06.082Z,96583.59
2018-11-21T06:15:40.745Z,96592.61
2018-11-21T06:17:20.191Z,96574.95
2018-11-21T06:18:54.679Z,96589.73
2018-11-21T06:20:30.014Z,96584.75
2018-11-21T06:22:07.072Z,96578.78
2018-11-21T06:23:45.508Z,96569.17
2018-11-21T06:25:22.659Z,96580.71
2018-11-21T06:27:05.687Z,96579.19
2018-11-21T06:28:42.460Z,96589.73
2018-11-21T06:30:39.689Z,96585.30
2018-11-21T06:34:08.280Z,96585.30
2018-11-21T06:37:42.537Z,96590.11
2018-11-21T06:39:18.199Z,96598.73
2018-11-21T06:43:09.255Z,96606.81
2018-11-21T06:45:08.767Z,96595.69
2018-11-21T06:46:54.754Z,96610.67
2018-11-21T06:48:41.497Z,96614.90
2018-11-21T06:52:21.929Z,96621.80
2018-11-21T06:55:53.894Z,96638.49
2018-11-21T06:57:29.981Z,96641.39
2018-11-21T06:59:05.024Z,96641.98
2018-11-21T07:00:39.536Z,96645.24
2018-11-21T07:02:14.506Z,96651.95
2018-11-21T07:04:08.618Z,96644.47
2018-11-21T07:06:03.065Z,96652.92
2018-11-21T07:07:38.081Z,96654.46
2018-11-21T07:09:13.183Z,96657.91
2018-11-21T07:10:49.672Z,96667.70
2018-11-21T07:12:24.360Z,96669.27
2018-11-21T07:14:00.310Z,96670.22
2018-11-21T07:15:37.242Z,96669.45
2018-11-21T07:17:14.811Z,96671.18
2018-11-21T07:18:51.648Z,96678.48
2018-11-21T07:20:26.180Z,96673.85
2018-11-21T07:22:09.212Z,96678.27
2018-11-21T07:23:52.451Z,96671.73
2018-11-21T07:26:11.781Z,96675.02
2018-11-21T07:28:04.215Z,96672.91
2018-11-21T07:32:02.521Z,96668.31
2018-11-21T07:33:38.966Z,96672.70
2018-11-21T07:35:18.104Z,96679.45
2018-11-21T07:36:51.230Z,96656.22
2018-11-21T07:38:26.179Z,96676.19
2018-11-21T07:40:00.671Z,96681.00
2018-11-21T07:41:36.029Z,96671.38
2018-11-21T07:43:10.999Z,96677.34
2018-11-21T07:44:45.846Z,96669.67
2018-11-21T07:46:20.685Z,96671.02
2018-11-21T07:47:55.382Z,96677.16
2018-11-21T07:49:29.868Z,96667.95
2018-11-21T07:51:05.061Z,96673.13
2018-11-21T07:52:39.752Z,96673.32
2018-11-21T07:54:14.299Z,96671.40
2018-11-21T07:55:49.138Z,96672.17
2018-11-21T07:58:01.689Z,96669.67
2018-11-21T07:59:55.582Z,96669.87
2018-11-21T08:01:35.215Z,96680.44
2018-11-21T08:03:10.201Z,96690.63
2018-11-21T08:04:51.976Z,96693.30
2018-11-21T08:06:29.468Z,96691.00
2018-11-21T08:08:23.058Z,96693.12
2018-11-21T08:10:08.772Z,96705.21
2018-11-21T08:12:10.423Z,96699.27
2018-11-21T08:14:21.275Z,96696.58
2018-11-21T08:16:33.823Z,96693.89
2018-11-21T08:18:46.564Z,96703.09
2018-11-21T08:24:45.809Z,96696.38
2018-11-21T08:26:39.339Z,96696.19
2018-11-21T08:28:42.993Z,96694.84
2018-11-21T08:30:39.959Z,96701.57
2018-11-21T08:32:19.791Z,96696.38
2018-11-21T08:33:58.010Z,96704.06
2018-11-21T08:35:36.694Z,96706.58
2018-11-21T08:37:31.028Z,96711.77
2018-11-21T08:41:02.520Z,96714.27
2018-11-21T08:42:39.297Z,96717.70
2018-11-21T08:44:39.630Z,96715.61
2018-11-21T08:46:15.972Z,96716.36
2018-11-21T08:48:24.109Z,96718.66
2018-11-21T08:50:02.863Z,96705.97
2018-11-21T08:51:40.710Z,96696.75
2018-11-21T08:53:21.179Z,96706.36
2018-11-21T08:54:57.321Z,96708.48
2018-11-21T08:56:36.155Z,96708.09
2018-11-21T08:58:13.081Z,96709.81
2018-11-21T08:59:50.860Z,96719.64
2018-11-21T09:01:26.534Z,96728.65
2018-11-21T09:06:54.343Z,96721.17
2018-11-21T09:09:07.365Z,96728.27
2018-11-21T09:12:42.454Z,96719.45
2018-11-21T09:14:18.720Z,96726.34
2018-11-21T09:15:53.510Z,96733.63
2018-11-21T09:17:29.171Z,96748.25
2018-11-21T09:19:03.636Z,96745.36
2018-11-21T09:20:42.132Z,96748.82
2018-11-21T09:24:30.143Z,96766.33
2018-11-21T09:26:08.205Z,96766.34
2018-11-21T09:27:45.372Z,96779.81
2018-11-21T09:29:25.155Z,96769.81
2018-11-21T09:33:39.000Z,96761.95
2018-11-21T09:35:18.258Z,96775.05
2018-11-21T09:36:58.523Z,96775.06
2018-11-21T09:38:38.473Z,96760.04
2018-11-21T09:40:18.461Z,96777.37
2018-11-21T09:41:58.075Z,96767.00
2018-11-21T09:43:34.266Z,96773.90
2018-11-21T09:45:13.764Z,96777.18
2018-11-21T09:46:50.566Z,96773.16
2018-11-21T09:48:29.817Z,96771.41
2018-11-21T09:50:14.451Z,96774.51
2018-11-21T09:51:59.055Z,96779.88
2018-11-21T09:53:39.686Z,96784.87
2018-11-21T09:55:16.175Z,96786.81
2018-11-21T09:56:54.613Z,96792.97
2018-11-21T09:58:33.060Z,96795.67
2018-11-21T10:01:02.907Z,96798.93
2018-11-21T10:03:17.393Z,96797.59
2018-11-21T10:04:58.069Z,96809.91
2018-11-21T10:06:39.607Z,96809.89
2018-11-21T10:09:00.224Z,96817.98
2018-11-21T10:10:36.732Z,96817.03
2018-11-21T10:12:13.640Z,96831.84
2018-11-21T10:13:49.765Z,96847.81
2018-11-21T10:17:38.019Z,96862.27
2018-11-21T10:19:51.367Z,96869.97
2018-11-21T10:21:39.107Z,96869.37
2018-11-21T10:23:36.315Z,96860.71
2018-11-21T10:25:12.607Z,96859.17
2018-11-21T10:26:51.473Z,96866.67
2018-11-21T10:28:27.967Z,96862.63
2018-11-21T10:30:05.414Z,96855.91
2018-11-21T10:31:41.876Z,96847.80
2018-11-21T10:33:18.213Z,96849.16
2018-11-21T10:34:57.438Z,96854.94
2018-11-21T10:36:34.715Z,96854.17
2018-11-21T10:38:17.382Z,96861.47
2018-11-21T10:40:02.233Z,96862.98
2018-11-21T10:41:39.121Z,96866.23
2018-11-21T10:43:15.561Z,96867.42
2018-11-21T10:44:51.939Z,96870.69
2018-11-21T10:49:06.886Z,96870.70
2018-11-21T10:50:43.114Z,96865.66
2018-11-21T10:52:22.649Z,96861.03
2018-11-21T10:53:59.215Z,96864.50
2018-11-21T10:55:38.335Z,96875.68
2018-11-21T10:57:14.816Z,96872.59
2018-11-21T10:58:54.430Z,96870.48
2018-11-21T11:01:10.501Z,96866.81
2018-11-21T11:03:22.036Z,96862.55
2018-11-21T11:07:05.907Z,96851.14
2018-11-21T11:09:20.441Z,96853.45
2018-11-21T11:11:26.217Z,96836.68
2018-11-21T11:13:40.691Z,96834.12
2018-11-21T11:18:01.076Z,96810.45
2018-11-21T11:24:30.588Z,96819.54
2018-11-21T11:26:44.838Z,96822.17
2018-11-21T11:28:50.129Z,96823.53
2018-11-21T11:32:55.936Z,96827.76
2018-11-21T11:35:01.623Z,96817.34
2018-11-21T11:36:48.768Z,96821.89
2018-11-21T11:39:01.660Z,96826.15
2018-11-21T11:40:55.088Z,96828.72
2018-11-21T11:42:47.952Z,96828.66
2018-11-21T11:44:50.581Z,96830.00
2018-11-21T11:47:04.849Z,96820.03
2018-11-21T11:49:10.613Z,96831.44
2018-11-21T11:51:16.585Z,96827.12
2018-11-21T11:53:21.618Z,96820.60
2018-11-21T11:57:27.769Z,96820.76
2018-11-21T11:59:27.836Z,96820.63
2018-11-21T12:01:42.688Z,96819.09
2018-11-21T12:11:23.708Z,96821.52
2018-11-21T12:13:40.740Z,96821.53
2018-11-21T12:15:49.565Z,96829.43
2018-11-21T12:17:50.043Z,96824.02
2018-11-21T12:19:47.641Z,96825.19
2018-11-21T12:21:48.548Z,96827.07
2018-11-21T12:23:45.342Z,96828.02
2018-11-21T12:25:38.374Z,96830.63
2018-11-21T12:27:33.342Z,96828.23
2018-11-21T12:29:33.911Z,96827.11
2018-11-21T12:31:28.424Z,96820.03
2018-11-21T12:33:42.429Z,96826.43
2018-11-21T12:38:01.516Z,96819.33
2018-11-21T12:40:07.249Z,96822.42
2018-11-21T12:42:14.774Z,96835.55
2018-11-21T12:44:27.861Z,96840.17
2018-11-21T12:48:42.019Z,96827.66
2018-11-21T12:50:37.227Z,96834.64
2018-11-21T12:52:31.879Z,96843.85
2018-11-21T12:54:45.274Z,96845.00
2018-11-21T12:56:52.184Z,96843.38
2018-11-21T12:58:49.644Z,96835.59
2018-11-21T13:01:03.041Z,96820.37
2018-11-21T13:05:14.424Z,96822.66
2018-11-21T13:07:40.836Z,96821.91
2018-11-21T13:10:09.679Z,96821.89
2018-11-21T13:12:05.280Z,96817.73
2018-11-21T13:16:36.904Z,96833.03
2018-11-21T13:18:37.164Z,96832.07
2018-11-21T13:22:44.683Z,96821.58
2018-11-21T13:24:59.073Z,96829.30
2018-11-21T13:26:59.616Z,96826.59
2018-11-21T13:29:02.133Z,96838.59
2018-11-21T13:35:24.009Z,96848.62
2018-11-21T13:37:37.206Z,96846.50
2018-11-21T13:39:50.707Z,96850.94
2018-11-21T13:41:57.853Z,96843.57
2018-11-21T13:45:41.176Z,96842.45
2018-11-21T13:47:55.365Z,96850.16
2018-11-21T13:50:01.254Z,96860.39
2018-11-21T13:51:56.518Z,96866.95
2018-11-21T13:54:05.248Z,96863.86
2018-11-21T13:58:01.192Z,96870.41
2018-11-21T14:01:56.359Z,96870.06
2018-11-21T14:04:15.720Z,96871.05
2018-11-21T14:06:12.073Z,96874.33
2018-11-21T14:07:49.426Z,96877.80
2018-11-21T14:09:26.009Z,96880.71
2018-11-21T14:11:12.135Z,96881.48
2018-11-21T14:12:51.089Z,96881.09
2018-11-21T14:14:47.249Z,96874.73
2018-11-21T14:16:22.608Z,96868.37
2018-11-21T14:18:02.440Z,96869.15
2018-11-21T14:19:52.398Z,96879.36
2018-11-21T14:21:30.475Z,96879.94
2018-11-21T14:23:06.865Z,96886.30
2018-11-21T14:26:12.167Z,96894.77
2018-11-21T14:27:55.046Z,96897.28
2018-11-21T14:29:44.578Z,96902.29
2018-11-21T14:31:54.951Z,96906.15
2018-11-21T14:33:37.985Z,96905.35
2018-11-21T14:35:24.888Z,96904.20
2018-11-21T14:37:11.130Z,96909.59
2018-11-21T14:38:51.801Z,96913.06
2018-11-21T14:40:30.075Z,96919.62
2018-11-21T14:42:08.487Z,96914.22
2018-11-21T14:43:46.010Z,96910.94
2018-11-21T14:45:24.649Z,96911.71
2018-11-21T14:47:04.991Z,96911.71
2018-11-21T14:48:42.297Z,96910.38
2018-11-21T14:50:24.460Z,96908.66
2018-11-21T14:52:00.575Z,96907.69
2018-11-21T14:53:37.451Z,96903.64
2018-11-21T14:55:14.448Z,96901.32
2018-11-21T14:56:50.753Z,96903.47
2018-11-21T14:58:26.748Z,96914.25
2018-11-21T15:00:04.498Z,96911.55
2018-11-21T15:03:55.807Z,96919.64
2018-11-21T15:07:46.302Z,96927.53
2018-11-21T15:09:42.252Z,96935.24
2018-11-21T15:13:47.619Z,96918.86
2018-11-21T15:18:05.222Z,96923.11
2018-11-21T15:20:18.484Z,96932.55
2018-11-21T15:21:55.243Z,96936.98
2018-11-21T15:23:50.679Z,96935.23
2018-11-21T15:28:06.150Z,96936.78
2018-11-21T15:29:42.567Z,96947.55
2018-11-21T15:36:01.682Z,96960.84
2018-11-21T15:40:09.620Z,96965.08
2018-11-21T15:41:57.844Z,96956.78
2018-11-21T15:43:44.551Z,96955.61
2018-11-21T15:45:33.263Z,96958.31
2018-11-21T15:47:23.410Z,96960.80
2018-11-21T15:49:10.574Z,96965.03
2018-11-21T15:51:19.908Z,96967.16
2018-11-21T15:54:57.799Z,96969.66
2018-11-21T15:58:57.040Z,96968.69
2018-11-21T16:02:50.906Z,96969.05
2018-11-21T16:04:47.900Z,96960.95
2018-11-21T16:06:36.018Z,96967.51
2018-11-21T16:12:23.303Z,96977.09
2018-11-21T16:14:10.551Z,96980.36
2018-11-21T16:15:58.296Z,96980.36
2018-11-21T16:17:45.576Z,96987.48
2018-11-21T16:19:36.244Z,96997.11
2018-11-21T16:23:53.234Z,97001.54
2018-11-21T16:28:00.127Z,97007.69
2018-11-21T16:29:46.826Z,97017.30
2018-11-21T16:33:36.698Z,97016.92
2018-11-21T16:35:26.342Z,97023.66
2018-11-21T16:37:17.326Z,97021.55
2018-11-21T16:41:42.621Z,97024.22
2018-11-21T16:43:49.429Z,97026.31
2018-11-21T16:45:50.377Z,97027.06
2018-11-21T16:47:34.015Z,97026.29
2018-11-21T16:49:11.928Z,97020.52
2018-11-21T16:50:52.333Z,97027.06
2018-11-21T16:52:33.672Z,97024.97
2018-11-21T16:54:14.042Z,97025.72
2018-11-21T16:55:52.360Z,97024.00
2018-11-21T16:57:31.352Z,97026.69
2018-11-21T16:59:14.228Z,97029.75
2018-11-21T17:00:59.618Z,97027.09
2018-11-21T17:02:39.712Z,97025.34
2018-11-21T17:04:17.709Z,97027.84
2018-11-21T17:05:55.484Z,97035.14
2018-11-21T17:07:33.458Z,97029.53
2018-11-21T17:09:13.782Z,97028.59
2018-11-21T17:11:03.003Z,97025.47
2018-11-21T17:12:42.545Z,97028.19
2018-11-21T17:14:24.019Z,97024.50
2018-11-21T17:16:04.831Z,97030.11
2018-11-21T17:17:48.280Z,97028.36
2018-11-21T17:19:34.285Z,97022.80
2018-11-21T17:21:19.231Z,97028.56
2018-11-21T17:23:01.855Z,97028.98
2018-11-21T17:24:38.643Z,97027.81
2018-11-21T17:26:17.332Z,97032.42
2018-11-21T17:28:05.291Z,97037.27
2018-11-21T17:29:54.006Z,97030.88
2018-11-21T17:36:05.035Z,97036.27
2018-11-21T17:38:21.807Z,97041.08
2018-11-21T17:39:58.431Z,97037.44
2018-11-21T17:41:38.916Z,97036.84
2018-11-21T17:43:20.150Z,97042.63
2018-11-21T17:44:57.816Z,97050.30
2018-11-21T17:50:47.292Z,97052.25
2018-11-21T17:52:35.964Z,97048.23
2018-11-21T17:54:26.346Z,97051.30
2018-11-21T17:56:16.173Z,97053.39
2018-11-21T17:58:12.452Z,97060.33
2018-11-21T18:15:20.233Z,97064.39
2018-11-21T18:17:02.241Z,97066.91
2018-11-21T18:18:39.867Z,97063.27
2018-11-21T18:20:18.605Z,97066.34
2018-11-21T18:21:57.125Z,97067.69
2018-11-21T18:23:33.781Z,97064.06
2018-11-21T18:25:14.875Z,97065.61
2018-11-21T18:27:05.163Z,97068.70
2018-11-21T18:28:44.193Z,97067.73
2018-11-21T18:30:22.323Z,97065.44
2018-11-21T18:34:50.684Z,97070.84
2018-11-21T18:36:31.483Z,97064.11
2018-11-21T18:38:14.820Z,97068.55
2018-11-21T18:39:55.681Z,97068.74
2018-11-21T18:41:33.912Z,97070.69
2018-11-21T18:43:21.880Z,97066.80
2018-11-21T18:44:59.219Z,97064.13
2018-11-21T18:46:36.982Z,97068.15
2018-11-21T18:48:29.928Z,97067.00
2018-11-21T18:50:11.198Z,97069.32
2018-11-21T18:51:48.140Z,97073.80
2018-11-21T18:53:24.821Z,97070.91
2018-11-21T18:55:01.789Z,97071.88
2018-11-21T18:57:21.830Z,97075.16
2018-11-21T18:59:24.380Z,97069.97
2018-11-21T19:05:35.215Z,97070.77
2018-11-21T19:07:31.983Z,97066.30
2018-11-21T19:09:19.643Z,97066.51
2018-11-21T19:11:25.915Z,97065.55
2018-11-21T19:12:58.432Z,97065.55
2018-11-21T19:14:39.390Z,97066.72
2018-11-21T19:18:16.976Z,97070.94
2018-11-21T19:19:56.041Z,97070.38
2018-11-21T19:21:52.686Z,97072.33
2018-11-21T19:23:51.190Z,97066.16
2018-11-21T19:25:57.144Z,97061.94
2018-11-21T19:29:44.232Z,97072.89
2018-11-21T19:31:49.233Z,97073.49
2018-11-21T19:36:06.883Z,97079.28
2018-11-21T19:39:54.943Z,97071.97
2018-11-21T19:45:50.051Z,97065.80
2018-11-21T19:48:00.331Z,97072.94
2018-11-21T19:49:37.170Z,97064.64
2018-11-21T19:51:32.169Z,97073.52
2018-11-21T19:53:28.156Z,97070.05
2018-11-21T19:55:10.990Z,97067.37
2018-11-21T19:57:00.589Z,97075.84
2018-11-21T19:58:51.926Z,97076.61
2018-11-21T20:00:43.432Z,97067.94
2018-11-21T20:02:39.441Z,97081.42
2018-11-21T20:04:20.095Z,97079.69
2018-11-21T20:06:02.860Z,97074.29
2018-11-21T20:07:39.385Z,97074.69
2018-11-21T20:09:32.626Z,97077.38
2018-11-21T20:11:09.244Z,97083.36
2018-11-21T20:12:46.793Z,97082.41
2018-11-21T20:14:30.241Z,97078.17
2018-11-21T20:16:07.884Z,97082.40
2018-11-21T20:17:47.374Z,97078.95
2018-11-21T20:19:36.266Z,97084.16
2018-11-21T20:21:13.864Z,97077.40
2018-11-21T20:31:28.467Z,97088.55
2018-11-21T20:33:05.260Z,97075.30
2018-11-21T20:34:42.019Z,97085.89
2018-11-21T20:36:51.714Z,97087.04
2018-11-21T20:38:20.953Z,97090.31
2018-11-21T20:39:59.217Z,97088.38
2018-11-21T20:41:36.919Z,97079.52
2018-11-21T20:43:17.060Z,97081.64
2018-11-21T20:47:15.905Z,97084.72
2018-11-21T20:51:23.054Z,97089.90
2018-11-21T20:55:42.839Z,97094.16
2018-11-21T20:59:22.102Z,97085.49
2018-11-21T21:01:18.378Z,97092.23
2018-11-21T21:02:56.404Z,97093.20
2018-11-21T21:04:47.843Z,97090.11
2018-11-21T21:06:30.699Z,97093.01
2018-11-21T21:08:20.650Z,97088.98
2018-11-21T21:10:10.041Z,97090.12
2018-11-21T21:11:47.390Z,97088.78
2018-11-21T21:13:25.383Z,97090.69
2018-11-21T21:15:04.311Z,97097.65
2018-11-21T21:16:46.499Z,97091.27
2018-11-21T21:18:27.839Z,97092.83
2018-11-21T21:20:07.903Z,97094.55
2018-11-21T21:22:05.159Z,97094.73
2018-11-21T21:23:42.399Z,97089.54
2018-11-21T21:25:27.443Z,97093.59
2018-11-21T21:27:05.948Z,97094.95
2018-11-21T21:28:53.941Z,97099.00
2018-11-21T21:31:21.314Z,97096.87
2018-11-21T21:35:14.133Z,97095.31
2018-11-21T21:36:59.542Z,97097.83
2018-11-21T21:42:49.555Z,97101.11
2018-11-21T21:44:33.282Z,97103.80
2018-11-21T21:46:31.256Z,97102.07
2018-11-21T21:48:36.860Z,97096.28
2018-11-21T21:50:16.885Z,97095.52
2018-11-21T21:51:56.116Z,97092.62
2018-11-21T21:53:41.264Z,97085.10
2018-11-21T21:55:32.579Z,97094.55
2018-11-21T21:57:12.163Z,97092.42
2018-11-21T21:59:16.663Z,97093.19
2018-11-21T22:03:30.755Z,97092.42
2018-11-21T22:05:15.769Z,97096.48
2018-11-21T22:10:18.752Z,97100.90
2018-11-21T22:18:49.752Z,97096.06
2018-11-21T22:25:01.387Z,97100.34
2018-11-21T22:26:43.784Z,97099.94
2018-11-21T22:34:08.994Z,97106.67
2018-11-21T22:35:36.030Z,97110.55
2018-11-21T22:41:54.990Z,97110.34
2018-11-21T22:43:42.503Z,97113.03
2018-11-21T22:45:58.255Z,97110.91
2018-11-21T22:48:05.446Z,97117.09
2018-11-21T22:49:45.266Z,97112.86
2018-11-21T22:51:32.984Z,97114.20
2018-11-21T22:53:23.715Z,97108.80
2018-11-21T22:55:14.086Z,97110.73
2018-11-21T22:57:05.723Z,97117.67
2018-11-21T22:58:56.871Z,97116.70
2018-11-21T23:03:01.442Z,97122.88
2018-11-21T23:05:16.865Z,97124.98
2018-11-21T23:07:04.617Z,97113.04
2018-11-21T23:08:54.244Z,97116.89
2018-11-21T23:10:50.553Z,97119.78
2018-11-21T23:12:27.164Z,97122.86
2018-11-21T23:14:23.660Z,97121.52
2018-11-21T23:16:11.009Z,97123.27
2018-11-21T23:18:02.841Z,97125.95
2018-11-21T23:19:52.004Z,97120.39
2018-11-21T23:21:41.389Z,97119.23
2018-11-21T23:23:28.793Z,97127.13
2018-11-21T23:29:19.609Z,97133.90
2018-11-21T23:31:07.599Z,97126.19
2018-11-21T23:39:14.559Z,97127.70
2018-11-21T23:41:02.740Z,97126.36
2018-11-21T23:42:52.078Z,97119.80
2018-11-21T23:44:38.938Z,97134.84
2018-11-21T23:46:26.003Z,97130.77
2018-11-21T23:48:03.623Z,97132.52
2018-11-21T23:52:09.370Z,97126.56
2018-11-21T23:53:56.875Z,97124.62
2018-11-21T23:56:09.735Z,97121.17
2018-11-21T23:57:40.925Z,97126.34
2018-11-21T23:59:29.571Z,97121.55
